This is the latest recevied weather packets stored in our database for station/object W6SNO-1. If no packets are shown the sender has not sent any weather packets the latest 10 day(s).
| Time | Temp. | Humidity | Pressure | Rain* | Wind** | Luminosity | Snow |
|---|---|---|---|---|---|---|---|
| 1787541177 | 23.89° C | 58% | 1012 hPa | 0 mm | - | 0 W/m² | - |
| 1787540568 | 25° C | 55% | 1012.1 hPa | 0 mm | - | 1 W/m² | - |
| 1787540265 | 25° C | 55% | 1011.9 hPa | 0 mm | - | 1 W/m² | - |
| 1787539356 | 25.56° C | 51% | 1011.6 hPa | 0 mm | - | 7 W/m² | - |
| 1787539052 | 25.56° C | 51% | 1011.8 hPa | 0 mm | - | 7 W/m² | - |
| 1787538446 | 26.67° C | 46% | 1011.5 hPa | 0 mm | - | 17 W/m² | - |
| 1787538140 | 26.67° C | 46% | 1011.8 hPa | 0 mm | - | 17 W/m² | - |
| 1787537223 | 27.78° C | 44% | 1011.5 hPa | 0 mm | - | 39 W/m² | - |
| 1787536922 | 27.78° C | 44% | 1011.4 hPa | 0 mm | - | 39 W/m² | - |
| 1787536013 | 28.33° C | 42% | 1011.5 hPa | 0 mm | - | 72 W/m² | - |
| 1787535708 | 28.33° C | 42% | 1011.5 hPa | 0 mm | - | 72 W/m² | - |
| 1787535404 | 28.89° C | 41% | 1011.4 hPa | 0 mm | - | 81 W/m² | - |
| 1787535104 | 29.44° C | 38% | 1011.5 hPa | 0 mm | - | 86 W/m² | - |
| 1787534803 | 29.44° C | 38% | 1011.2 hPa | 0 mm | - | 86 W/m² | - |
| 1787534498 | 30° C | 39% | 1011.3 hPa | 0 mm | - | 92 W/m² | - |
| 1787534196 | 30° C | 39% | 1011.3 hPa | 0 mm | - | 108 W/m² | - |
| 1787533893 | 30° C | 39% | 1011.2 hPa | 0 mm | - | 103 W/m² | - |
| 1787533589 | 30.56° C | 39% | 1011.4 hPa | 0 mm | - | 105 W/m² | - |
| 1787533286 | 30.56° C | 38% | 1011.4 hPa | 0 mm | - | 106 W/m² | - |
| 1787532371 | 31.67° C | 38% | 1011.3 hPa | 0 mm | - | 132 W/m² | - |
| 1787532067 | 31.67° C | 38% | 1011.2 hPa | 0 mm | - | 132 W/m² | - |
| 1787531762 | 31.67° C | 38% | 1011.2 hPa | 0 mm | - | 130 W/m² | - |
| 1787531458 | 31.67° C | 38% | 1011.3 hPa | 0 mm | - | 168 W/m² | - |
| 1787531154 | 31.67° C | 37% | 1011.1 hPa | 0 mm | - | 252 W/m² | - |
| 1787530850 | 32.22° C | 38% | 1011.4 hPa | 0 mm | - | 267 W/m² | - |
* Rain latest hour (hover to see other rain measurements)
** Current wind speed in m/s (hover to see current wind gust speed)